Airfield :
LOGIN :

Register | Disclaimer

   EN    FR    IT 

 










Legend :    VFR   Marginal VFR   IFR   Intensive IFR   Very Intensive IFR
Visi :
Ceiling :
>= 8 km
>= 3000ft
5 to 8 km
1000 to 3000 ft
1500m to 5 km
500 to 1000 ft
800 to 1500m
200 to 500 ft
< 800m
< 200 ft
Symbols :   Thunderstorms  Fog  Heavy snow  Heavy precipitations  Wind > 20 kt
SIGMETs :     Misc.  Thunderstorms  Icing  Turbulence  Mountain Waves  Volcanic Ashes






- Airport Elevation : 400 ft
- IATA code : BNX


LQBK - Banja Luka

CURRENT METAR :
  • 232100Z 17002KT 2500 MIFG BR NSC 11/11 Q1019 TEMPO 1200 BCFG

EXPIRED METARs :
  • 232030Z 16002KT 3500 MIFG BR NSC 11/11 Q1019 TEMPO 2000 BCFG
  • 232000Z 17002KT 4000 BR NSC 12/11 Q1019 NOSIG
  • 231930Z 17002KT 4000 BR NSC 12/11 Q1019 NOSIG
  • 231900Z 00000KT 5000 BR NSC 13/12 Q1019 NOSIG
  • 231830Z 00000KT 6000 NSC 13/12 Q1019 NOSIG

TAF TAF LQBK
Valid from the 23 at 18:00 until the 24 at 18:00 UTC


231700Z 2318/2418 VRB02KT CAVOK TX25/2413Z TN08/2405Z
BECMG 2320/2323 2000 BR
PROB40
TEMPO 2401/2407 0200 FG VV001
BECMG 2408/2409 9999 NSW



MET'MAP, your aeronautical weather chart ! - Copyright ORBIFLY December 2007 - Disclaimer

ORBIFLY MET'MAP TEAM :

Programming & Development : Alexandra Zaïnal
Concept & Development : Baudouin d'Aumeries
Co-Development & Prog : Marc-Olivier Méhu
Technical & hardware support : Manuel Goepfert

Contact : metmap@orbifly.com




SOURCES & CREDITS :

   NOAA